Time;durP1;ratioP1;P1;durP2;ratioP2;P2;SDS_P1;SDS_P2;PMS_P1;PMS_P2;Temp;Humidity;BMP_temperature;BMP_pressure;BME280_temperature;BME280_humidity;BME280_pressure;Samples;Min_cycle;Max_cycle;Signal;HPM_P1;HPM_P2
2022/11/15 07:42:53;;;;;;;6.40;2.20;;;;;;;11.69;70.69;96117.59;2064667;27;1259741;-66
2022/11/15 07:43:59;;;;;;;7.50;2.25;;;;;;;11.32;72.06;96115.28;2082818;28;20461;-67
2022/11/15 07:45:00;;;;;;;9.35;2.25;;;;;;;10.89;73.18;96110.69;2083810;28;20224;-67
2022/11/15 07:46:08;;;;;;;4.25;1.70;;;;;;;10.90;73.51;96107.13;2083636;28;20219;-65
2022/11/15 07:47:10;;;;;;;5.13;1.90;;;;;;;10.81;73.34;96115.47;2083013;28;20200;-65
2022/11/15 07:48:12;;;;;;;9.07;1.90;;;;;;;10.64;73.82;96118.13;2086757;28;20311;-65
2022/11/15 07:49:17;;;;;;;4.38;1.83;;;;;;;10.57;73.99;96118.47;2091472;28;20231;-65
2022/11/15 07:50:18;;;;;;;5.78;2.00;;;;;;;10.36;75.11;96107.41;2090428;28;20270;-65
2022/11/15 08:05:32;;;;;;;4.20;1.50;;;;;;;12.89;66.34;96115.69;2087020;28;20574;-67
2022/11/15 08:06:34;;;;;;;4.28;2.53;;;;;;;12.96;65.72;96091.72;2088784;28;20291;-66
2022/11/15 08:07:35;;;;;;;3.78;1.80;;;;;;;12.86;66.27;96109.78;2090682;28;20768;-65
2022/11/15 08:08:37;;;;;;;3.08;1.45;;;;;;;12.94;66.30;96111.94;2084899;28;20197;-65
2022/11/15 08:09:38;;;;;;;3.53;1.60;;;;;;;12.66;67.17;96121.50;2082129;28;20236;-65
2022/11/15 08:10:39;;;;;;;1.50;0.90;;;;;;;13.05;66.49;96117.34;2080826;28;20789;-65
2022/11/15 08:11:41;;;;;;;7.85;1.67;;;;;;;13.04;65.94;96113.06;2081515;28;20208;-65
2022/11/15 08:12:42;;;;;;;3.70;1.70;;;;;;;13.50;64.82;96111.94;2081579;28;20291;-65
2022/11/15 08:13:44;;;;;;;4.05;1.83;;;;;;;13.57;64.07;96109.75;2075079;28;20228;-65
2022/11/15 08:14:45;;;;;;;6.60;1.58;;;;;;;13.55;64.44;96099.34;2073530;28;20289;-65
2022/11/15 08:15:47;;;;;;;4.60;2.50;;;;;;;13.74;63.99;96117.34;2072993;28;20229;-65
2022/11/15 08:16:53;;;;;;;2.90;1.50;;;;;;;13.22;64.56;96116.28;2072347;28;20197;-65
2022/11/15 08:18:02;;;;;;;3.00;1.40;;;;;;;13.21;64.84;96118.06;2072165;28;20244;-64
2022/11/15 08:19:04;;;;;;;3.70;1.52;;;;;;;13.10;65.34;96112.66;2074862;28;20212;-65
2022/11/15 08:20:06;;;;;;;6.00;1.85;;;;;;;12.83;65.98;96100.34;2074442;28;20289;-65
2022/11/15 08:21:09;;;;;;;2.60;1.58;;;;;;;13.11;65.77;96109.09;2073057;28;20197;-65
2022/11/15 08:22:18;;;;;;;4.57;1.73;;;;;;;13.15;64.82;96105.34;2071026;28;20611;-65
2022/11/15 08:23:20;;;;;;;4.93;1.80;;;;;;;13.15;65.30;96109.75;2076109;28;20247;-65
2022/11/15 08:24:21;;;;;;;3.17;1.40;;;;;;;13.11;65.56;96103.03;2075694;28;20221;-64
2022/11/15 08:25:26;;;;;;;5.13;1.38;;;;;;;13.19;65.37;96104.22;2075485;28;20241;-65
2022/11/15 08:26:29;;;;;;;4.15;1.55;;;;;;;12.97;65.86;96101.28;2072021;28;20248;-65
2022/11/15 08:27:31;;;;;;;6.82;1.60;;;;;;;13.11;65.83;96105.66;2073230;28;20416;-65
2022/11/15 08:28:32;;;;;;;5.80;1.88;;;;;;;13.71;64.49;96104.41;2073306;28;20197;-65
2022/11/15 08:29:34;;;;;;;5.60;1.30;;;;;;;13.83;64.07;96094.91;2074364;28;20305;-65
2022/11/15 08:30:38;;;;;;;4.80;1.75;;;;;;;13.52;64.82;96095.16;2074296;28;20216;-65
2022/11/15 08:31:39;;;;;;;4.18;1.42;;;;;;;13.31;64.56;96094.72;2073309;28;20590;-65
2022/11/15 08:32:45;;;;;;;3.75;1.95;;;;;;;12.66;66.11;96092.69;2072900;28;20197;-65
2022/11/15 08:33:46;;;;;;;5.72;1.60;;;;;;;12.58;67.60;96099.25;2072935;28;20208;-65
2022/11/15 08:34:47;;;;;;;8.93;2.15;;;;;;;12.39;68.22;96096.91;2073253;28;20198;-65
2022/11/15 08:35:49;;;;;;;3.78;1.88;;;;;;;12.30;68.43;96073.06;2076011;28;20860;-65
2022/11/15 08:36:50;;;;;;;5.15;1.90;;;;;;;12.20;68.85;96098.94;2074952;28;20292;-65
2022/11/15 08:37:53;;;;;;;2.88;1.30;;;;;;;12.23;68.51;96094.38;2073988;28;20308;-65
2022/11/15 08:38:54;;;;;;;5.10;2.00;;;;;;;12.19;68.52;96090.25;2074779;28;20680;-65
2022/11/15 08:39:56;;;;;;;4.00;1.30;;;;;;;12.15;68.76;96080.91;2074601;28;20626;-65
2022/11/15 08:41:03;;;;;;;3.65;1.70;;;;;;;12.00;69.81;96085.28;2072227;28;20334;-65
2022/11/15 08:42:05;;;;;;;6.70;1.65;;;;;;;11.98;70.08;96086.31;2074266;28;20552;-65
2022/11/15 08:43:06;;;;;;;3.45;1.80;;;;;;;11.99;70.61;96094.06;2073645;28;20304;-65
2022/11/15 08:44:07;;;;;;;2.97;1.63;;;;;;;11.97;69.92;96079.38;2074083;28;20209;-65
2022/11/15 08:45:09;;;;;;;4.22;1.67;;;;;;;11.95;70.06;96081.22;2075061;28;20552;-65
2022/11/15 08:46:13;;;;;;;4.03;1.75;;;;;;;11.96;69.92;96067.22;2074086;28;20265;-65
2022/11/15 08:47:18;;;;;;;3.75;2.03;;;;;;;12.02;70.24;96080.78;2074822;28;20201;-65
2022/11/15 08:48:20;;;;;;;4.90;2.05;;;;;;;12.01;70.01;96073.03;2071088;28;20629;-65
2022/11/15 08:49:21;;;;;;;4.25;1.65;;;;;;;12.04;69.51;96072.88;2072075;28;20290;-65
2022/11/15 08:50:22;;;;;;;5.07;1.88;;;;;;;12.11;69.85;96083.81;2073209;28;20229;-65
2022/11/15 08:51:24;;;;;;;3.55;1.55;;;;;;;12.04;70.30;96078.09;2075040;28;20284;-65
2022/11/15 08:52:25;;;;;;;3.55;1.40;;;;;;;11.93;70.48;96081.31;2076799;28;20193;-65
2022/11/15 08:53:27;;;;;;;4.43;1.52;;;;;;;12.34;70.00;96077.16;2076106;28;20232;-65
2022/11/15 08:54:28;;;;;;;3.63;1.90;;;;;;;12.55;68.50;96083.72;2074438;28;20197;-65
2022/11/15 08:55:30;;;;;;;3.40;1.52;;;;;;;12.53;68.17;96082.13;2074848;28;20344;-65
2022/11/15 08:56:31;;;;;;;7.82;2.65;;;;;;;12.37;68.60;96084.88;2074816;28;20772;-65
2022/11/15 09:16:11;;;;;;;8.93;1.92;;;;;;;13.21;66.97;96052.50;2085066;27;20552;-66
2022/11/15 09:17:17;;;;;;;4.18;1.50;;;;;;;14.35;63.54;96059.03;2082541;28;20231;-67
2022/11/15 09:18:25;;;;;;;3.40;1.60;;;;;;;15.48;60.65;96074.75;2075253;28;20232;-67
2022/11/15 09:19:26;;;;;;;5.72;1.60;;;;;;;15.56;59.69;96074.16;2073887;28;20639;-67
2022/11/15 09:20:28;;;;;;;4.90;1.90;;;;;;;14.94;60.91;96079.44;2073766;28;20245;-67
2022/11/15 09:21:30;;;;;;;3.00;1.80;;;;;;;15.21;60.94;96075.81;2070927;28;20233;-67
2022/11/15 09:22:32;;;;;;;4.28;1.90;;;;;;;16.06;58.27;96074.84;2073096;28;20292;-67
2022/11/15 09:23:33;;;;;;;4.80;1.50;;;;;;;15.29;60.25;96075.25;2066107;28;20236;-67
2022/11/15 09:24:35;;;;;;;2.95;1.40;;;;;;;16.74;57.15;96074.88;2062943;28;20693;-67
2022/11/15 09:25:41;;;;;;;2.42;1.13;;;;;;;17.35;54.77;96078.06;2065713;28;20233;-67
2022/11/15 09:26:43;;;;;;;2.90;1.45;;;;;;;17.61;54.96;96071.50;2066155;28;20201;-67
2022/11/15 09:27:44;;;;;;;2.88;1.45;;;;;;;18.21;52.82;96072.81;2066503;28;20264;-67
2022/11/15 09:28:46;;;;;;;2.65;1.52;;;;;;;16.86;55.63;96056.44;2066029;28;20465;-67
2022/11/15 09:29:47;;;;;;;4.13;2.85;;;;;;;16.82;55.94;96045.28;2065729;28;20326;-68
2022/11/15 09:30:49;;;;;;;6.93;1.60;;;;;;;16.37;56.95;96071.66;2066170;28;20258;-68
2022/11/15 09:31:52;;;;;;;9.05;1.50;;;;;;;15.33;59.78;96061.75;2067963;28;20560;-68
2022/11/15 09:32:53;;;;;;;9.02;1.65;;;;;;;14.75;61.89;96058.06;2067011;28;20276;-67
2022/11/15 09:33:55;;;;;;;3.35;1.13;;;;;;;14.61;62.19;96064.25;2065547;28;20282;-67
2022/11/15 09:34:57;;;;;;;5.32;1.95;;;;;;;14.47;62.60;96062.59;2066961;28;20234;-67
2022/11/15 09:36:01;;;;;;;4.63;1.70;;;;;;;14.24;63.28;96065.00;2065826;28;20213;-69
2022/11/15 09:37:02;;;;;;;3.92;1.83;;;;;;;14.15;63.70;96050.72;2064616;28;20786;-67
2022/11/15 09:38:04;;;;;;;2.42;1.25;;;;;;;14.01;64.35;96059.53;2061970;28;20578;-68
2022/11/15 09:39:05;;;;;;;6.13;2.08;;;;;;;13.43;65.87;96063.44;2066418;28;21090;-68
2022/11/15 09:40:11;;;;;;;4.55;1.48;;;;;;;13.45;65.66;96059.75;2065940;28;20202;-67
2022/11/15 09:41:34;;;;;;;6.45;1.60;;;;;;;13.25;66.67;96031.34;2067407;28;20285;-67
2022/11/15 09:42:38;;;;;;;3.42;1.67;;;;;;;12.98;67.41;96053.16;2064719;28;20206;-68
2022/11/15 09:43:58;;;;;;;7.97;1.75;;;;;;;12.74;67.75;96051.97;2064254;28;20269;-67
2022/11/15 09:45:14;;;;;;;2.35;1.23;;;;;;;12.54;68.80;96062.88;2067908;28;20226;-68
2022/11/15 09:46:37;;;;;;;3.05;1.50;;;;;;;11.96;68.23;95950.34;2068528;28;20232;-67
2022/11/15 09:47:47;;;;;;;17.13;1.67;;;;;;;12.28;69.15;96067.06;2065895;28;20220;-67
2022/11/15 09:48:53;;;;;;;3.95;1.55;;;;;;;12.29;69.81;96060.91;2065815;28;20198;-67
2022/11/15 09:49:59;;;;;;;5.15;2.15;;;;;;;12.28;69.87;96059.22;2067840;28;20230;-67
2022/11/15 09:51:04;;;;;;;3.45;1.55;;;;;;;12.17;70.19;96062.50;2067481;28;20230;-67
2022/11/15 09:52:10;;;;;;;7.35;2.17;;;;;;;12.23;70.50;96047.25;2067270;28;20337;-67
2022/11/15 09:53:18;;;;;;;6.05;1.50;;;;;;;12.22;70.95;96045.56;2065328;28;20266;-68
2022/11/15 09:54:46;;;;;;;5.00;2.00;;;;;;;12.30;71.80;96060.81;2066733;28;20260;-67
2022/11/15 09:56:03;;;;;;;3.97;2.03;;;;;;;12.38;71.69;96053.34;2065642;28;20735;-67
2022/11/15 09:57:14;;;;;;;3.38;1.55;;;;;;;12.21;70.97;96057.00;2066646;28;20196;-67
2022/11/15 09:58:29;;;;;;;2.92;1.67;;;;;;;12.11;71.70;96052.41;2067533;28;20271;-67
2022/11/15 10:00:11;;;;;;;3.83;1.63;;;;;;;12.20;70.98;96052.69;2065075;28;20252;-67
2022/11/15 10:02:04;;;;;;;3.70;1.77;;;;;;;12.19;71.16;96055.38;2061255;28;20203;-67
2022/11/15 10:03:13;;;;;;;7.93;1.48;;;;;;;12.13;71.72;96053.16;2066716;28;20339;-65
2022/11/15 10:04:15;;;;;;;3.17;1.48;;;;;;;12.13;71.74;96040.91;2065878;28;20229;-65
2022/11/15 10:05:20;;;;;;;5.53;1.80;;;;;;;12.12;71.30;96052.31;2063793;28;20226;-65
2022/11/15 10:06:24;;;;;;;4.80;1.80;;;;;;;12.14;71.36;96053.06;2065748;28;20198;-65
2022/11/15 10:08:13;;;;;;;4.63;1.67;;;;;;;12.05;71.46;96046.59;2065477;28;20232;-65
2022/11/15 10:09:42;;;;;;;5.13;1.95;;;;;;;12.14;71.66;96045.22;2052813;28;20370;-65
2022/11/15 10:10:48;;;;;;;2.67;1.48;;;;;;;12.24;71.35;96045.50;2062054;28;20202;-65
2022/11/15 10:11:50;;;;;;;3.33;1.60;;;;;;;12.18;71.89;96049.31;2066067;28;20233;-63
2022/11/15 10:12:52;;;;;;;3.00;1.52;;;;;;;12.17;70.73;96034.53;2064815;28;20230;-64
2022/11/15 10:13:59;;;;;;;4.20;2.10;;;;;;;12.19;71.14;96047.53;2067374;28;20336;-65
2022/11/15 10:15:14;;;;;;;2.50;1.45;;;;;;;12.17;71.94;96041.56;2065466;28;20875;-65
2022/11/15 10:16:28;;;;;;;4.05;1.90;;;;;;;12.16;71.99;96040.69;2066624;28;20352;-65
2022/11/15 10:17:50;;;;;;;3.65;1.88;;;;;;;12.00;72.12;96039.94;2066752;28;20225;-65
2022/11/15 10:19:06;;;;;;;5.25;1.60;;;;;;;11.95;71.99;96028.88;2065670;28;20240;-65
2022/11/15 10:20:21;;;;;;;4.85;2.17;;;;;;;12.02;71.95;96038.09;2065227;28;20306;-65
2022/11/15 10:21:39;;;;;;;3.42;1.60;;;;;;;12.02;71.68;96027.63;2064861;28;20230;-65
2022/11/15 11:35:16;;;;;;;3.72;1.60;;;;;;;12.09;72.62;95948.66;2102558;27;20559;-65
2022/11/15 11:36:36;;;;;;;3.47;1.70;;;;;;;12.00;73.29;95938.75;2091627;28;20208;-64
2022/11/15 11:37:53;;;;;;;5.43;1.45;;;;;;;12.14;73.15;95940.53;2092815;28;20203;-65
2022/11/15 11:39:32;;;;;;;2.85;1.48;;;;;;;12.27;73.26;95945.81;2077342;28;20201;-65
2022/11/15 11:40:44;;;;;;;7.00;1.80;;;;;;;12.24;72.48;95939.00;2080059;28;20204;-65
2022/11/15 11:41:59;;;;;;;2.20;1.08;;;;;;;12.33;72.38;95936.72;2083194;28;20247;-65
2022/11/15 11:43:19;;;;;;;4.80;1.38;;;;;;;12.35;72.75;95945.34;2077387;28;20241;-65
2022/11/15 11:44:47;;;;;;;4.75;1.40;;;;;;;12.33;73.05;95941.97;2074694;28;20193;-65
2022/11/15 11:46:00;;;;;;;2.53;1.30;;;;;;;12.40;72.19;95936.28;2072911;28;20321;-65
2022/11/15 11:47:24;;;;;;;4.68;1.70;;;;;;;12.43;71.77;95935.25;2072621;28;20204;-65
2022/11/15 11:48:46;;;;;;;4.10;1.67;;;;;;;12.46;72.33;95934.22;2070401;28;20616;-66
2022/11/15 11:49:54;;;;;;;5.57;1.73;;;;;;;12.49;72.34;95931.38;2071664;28;20926;-65
2022/11/15 11:51:05;;;;;;;9.85;1.58;;;;;;;12.55;72.19;95931.81;2060339;28;20750;-65
2022/11/15 11:52:13;;;;;;;3.80;1.80;;;;;;;12.56;72.05;95932.69;2066142;28;20564;-65
2022/11/15 11:53:29;;;;;;;7.00;2.08;;;;;;;12.57;71.55;95932.56;2069131;28;20260;-65
2022/11/15 11:54:42;;;;;;;2.60;1.20;;;;;;;12.64;71.83;95934.81;2071902;28;20726;-65
2022/11/15 13:04:21;;;;;;;1.73;0.90;;;;;;;12.43;74.32;95863.69;2084055;28;20570;-68
2022/11/15 13:05:35;;;;;;;2.92;1.20;;;;;;;12.50;73.78;95859.75;2079125;28;20320;-68
2022/11/15 13:06:47;;;;;;;3.00;1.10;;;;;;;12.50;73.53;95860.56;2079533;28;20284;-68
2022/11/15 13:07:49;;;;;;;2.47;1.30;;;;;;;12.50;73.23;95855.34;2076062;28;20196;-69
2022/11/15 13:08:51;;;;;;;3.25;1.10;;;;;;;12.56;73.04;95854.94;2072005;28;20654;-69
2022/11/15 13:09:54;;;;;;;1.98;1.10;;;;;;;12.65;72.59;95853.50;2073457;28;20209;-69
2022/11/15 13:10:56;;;;;;;1.83;0.90;;;;;;;12.63;72.52;95851.94;2074170;28;20221;-69
2022/11/15 13:12:01;;;;;;;4.05;1.17;;;;;;;12.58;72.90;95837.34;2072278;28;20201;-69
2022/11/15 13:13:09;;;;;;;2.58;1.20;;;;;;;12.72;72.89;95846.06;2066690;28;20254;-69
2022/11/15 13:14:41;;;;;;;8.60;1.58;;;;;;;12.73;72.47;95848.63;2063909;28;20305;-69
2022/11/15 13:15:56;;;;;;;2.13;1.05;;;;;;;12.69;72.28;95835.81;2063430;28;20206;-69
2022/11/15 13:17:01;;;;;;;3.03;1.20;;;;;;;12.70;72.97;95840.13;2065099;28;20291;-69
2022/11/15 13:18:27;;;;;;;3.00;1.20;;;;;;;12.72;73.69;95835.59;2063700;28;20686;-69
2022/11/15 13:19:35;;;;;;;8.27;1.00;;;;;;;12.67;73.47;95828.06;2064798;28;20194;-69
2022/11/15 13:20:37;;;;;;;3.05;1.20;;;;;;;12.74;73.97;95831.09;2064388;28;20332;-69
2022/11/15 15:33:13;;;;;;;6.75;1.92;;;;;;;10.47;81.88;95597.84;2099580;27;21289;-63
2022/11/15 15:34:15;;;;;;;5.60;1.90;;;;;;;10.90;81.63;95673.53;2099043;28;20226;-62
